createdAt,value
2018-07-15T00:02:12.075Z,15.90
2018-07-15T00:05:15.704Z,15.90
2018-07-15T00:08:19.310Z,15.90
2018-07-15T00:11:22.939Z,15.90
2018-07-15T00:14:26.595Z,15.90
2018-07-15T00:20:33.556Z,15.80
2018-07-15T00:23:37.178Z,15.90
2018-07-15T00:26:40.786Z,15.90
2018-07-15T00:29:44.420Z,15.90
2018-07-15T00:32:48.035Z,15.80
2018-07-15T00:35:51.667Z,15.70
2018-07-15T00:38:55.276Z,15.70
2018-07-15T00:41:58.911Z,15.70
2018-07-15T00:45:02.544Z,15.70
2018-07-15T00:48:06.191Z,15.60
2018-07-15T00:51:09.819Z,15.50
2018-07-15T00:57:16.809Z,15.40
2018-07-15T01:00:25.824Z,15.40
2018-07-15T01:03:29.906Z,15.40
2018-07-15T01:06:33.564Z,15.30
2018-07-15T01:09:37.175Z,15.20
2018-07-15T01:12:40.819Z,15.10
2018-07-15T01:15:44.436Z,15.00
2018-07-15T01:18:48.105Z,15.00
2018-07-15T01:21:51.783Z,14.90
2018-07-15T01:24:55.450Z,14.90
2018-07-15T01:27:59.199Z,14.90
2018-07-15T01:34:06.354Z,15.00
2018-07-15T01:37:10.001Z,14.90
2018-07-15T01:40:13.640Z,14.80
2018-07-15T01:43:17.238Z,14.80
2018-07-15T01:46:20.891Z,14.70
2018-07-15T01:49:24.473Z,14.70
2018-07-15T01:52:28.110Z,14.60
2018-07-15T01:55:31.713Z,14.60
2018-07-15T01:58:35.576Z,14.40
2018-07-15T02:01:39.188Z,14.40
2018-07-15T02:04:49.379Z,14.40
2018-07-15T02:07:52.990Z,14.40
2018-07-15T02:10:56.609Z,14.40
2018-07-15T02:14:00.628Z,14.40
2018-07-15T02:17:04.246Z,14.30
2018-07-15T02:20:07.860Z,14.30
2018-07-15T02:23:11.517Z,14.30
2018-07-15T02:26:15.139Z,14.20
2018-07-15T02:29:18.817Z,14.20
2018-07-15T02:32:22.438Z,14.10
2018-07-15T02:35:26.071Z,14.10
2018-07-15T02:38:29.672Z,14.10
2018-07-15T02:41:33.312Z,14.10
2018-07-15T02:47:40.261Z,14.10
2018-07-15T02:50:43.863Z,14.10
2018-07-15T02:53:47.496Z,14.00
2018-07-15T02:59:54.462Z,14.00
2018-07-15T03:02:58.924Z,13.90
2018-07-15T03:06:02.635Z,13.90
2018-07-15T03:09:08.116Z,13.90
2018-07-15T03:12:11.740Z,14.00
2018-07-15T03:15:15.469Z,14.00
2018-07-15T03:18:19.097Z,14.10
2018-07-15T03:21:22.719Z,14.20
2018-07-15T03:24:26.342Z,14.40
2018-07-15T03:27:29.955Z,14.50
2018-07-15T03:30:33.812Z,14.60
2018-07-15T03:33:37.414Z,15.00
2018-07-15T03:36:41.046Z,15.60
2018-07-15T03:39:44.689Z,16.20
2018-07-15T03:42:48.327Z,16.80
2018-07-15T03:45:51.929Z,17.10
2018-07-15T03:48:55.554Z,17.40
2018-07-15T03:51:59.162Z,17.80
2018-07-15T03:55:02.839Z,18.10
2018-07-15T03:58:06.464Z,18.10
2018-07-15T04:01:10.090Z,17.80
2018-07-15T04:04:13.692Z,17.40
2018-07-15T04:07:17.331Z,17.10
2018-07-15T04:10:20.928Z,16.90
2018-07-15T04:13:24.566Z,17.00
2018-07-15T04:16:28.171Z,17.60
2018-07-15T04:19:31.795Z,18.50
2018-07-15T04:22:35.435Z,19.50
2018-07-15T04:28:42.429Z,20.70
2018-07-15T04:31:46.037Z,21.40
2018-07-15T04:37:53.024Z,21.30
2018-07-15T04:40:56.646Z,20.80
2018-07-15T04:44:00.255Z,20.70
2018-07-15T04:47:03.899Z,20.20
2018-07-15T04:50:07.498Z,20.20
2018-07-15T04:53:11.145Z,20.70
2018-07-15T04:56:14.753Z,21.40
2018-07-15T04:59:18.383Z,21.60
2018-07-15T05:02:21.983Z,22.10
2018-07-15T05:05:25.640Z,22.50
2018-07-15T05:08:30.090Z,22.20
2018-07-15T05:11:33.815Z,21.80
2018-07-15T05:14:37.451Z,21.00
2018-07-15T05:17:41.070Z,20.80
2018-07-15T05:20:44.679Z,20.70
2018-07-15T05:26:51.645Z,20.90
2018-07-15T05:29:55.253Z,21.10
2018-07-15T05:32:58.874Z,21.90
2018-07-15T05:39:05.868Z,22.60
2018-07-15T05:42:09.481Z,22.10
2018-07-15T05:48:16.450Z,22.20
2018-07-15T05:51:20.117Z,22.50
2018-07-15T05:54:23.738Z,22.50
2018-07-15T05:57:27.365Z,23.10
2018-07-15T06:00:31.647Z,23.40
2018-07-15T06:03:35.336Z,22.20
2018-07-15T06:06:38.915Z,21.90
2018-07-15T06:12:45.868Z,22.30
2018-07-15T06:15:49.521Z,22.90
2018-07-15T06:18:53.661Z,23.40
2018-07-15T06:21:57.295Z,23.50
2018-07-15T06:25:00.895Z,23.50
2018-07-15T06:28:04.548Z,23.50
2018-07-15T06:31:08.172Z,22.90
2018-07-15T06:34:11.845Z,22.90
2018-07-15T06:40:18.824Z,22.40
2018-07-15T06:43:22.436Z,22.60
2018-07-15T06:46:31.515Z,23.10
2018-07-15T06:49:35.114Z,22.50
2018-07-15T06:52:38.978Z,22.70
2018-07-15T06:55:42.597Z,22.10
2018-07-15T06:58:46.230Z,22.00
2018-07-15T07:01:50.037Z,22.00
2018-07-15T07:04:53.655Z,22.30
2018-07-15T07:07:57.268Z,22.60
2018-07-15T07:11:00.901Z,22.80
2018-07-15T07:14:04.831Z,22.20
2018-07-15T07:17:08.458Z,22.50
2018-07-15T07:20:12.103Z,22.70
2018-07-15T07:23:15.711Z,23.00
2018-07-15T07:29:22.703Z,22.90
2018-07-15T07:35:29.754Z,23.90
2018-07-15T07:38:33.291Z,23.70
2018-07-15T07:41:36.952Z,23.10
2018-07-15T07:44:40.589Z,22.70
2018-07-15T07:47:44.221Z,22.20
2018-07-15T07:50:47.830Z,22.10
2018-07-15T07:53:51.469Z,22.30
2018-07-15T07:56:55.078Z,23.20
2018-07-15T07:59:58.722Z,22.80
2018-07-15T08:09:09.093Z,24.60
2018-07-15T08:12:12.728Z,24.50
2018-07-15T08:15:16.421Z,24.70
2018-07-15T08:18:20.044Z,24.70
2018-07-15T08:21:23.667Z,25.60
2018-07-15T08:24:27.297Z,25.50
2018-07-15T08:27:30.910Z,24.60
2018-07-15T08:31:17.816Z,23.40
2018-07-15T08:34:21.550Z,22.50
2018-07-15T08:37:25.137Z,23.20
2018-07-15T08:40:28.777Z,23.40
2018-07-15T08:43:32.389Z,23.20
2018-07-15T08:46:36.018Z,23.10
2018-07-15T08:49:39.639Z,23.40
2018-07-15T08:52:43.276Z,24.30
2018-07-15T08:55:46.882Z,25.00
2018-07-15T08:58:50.802Z,25.00
2018-07-15T09:01:54.475Z,25.10
2018-07-15T09:04:58.118Z,25.40
2018-07-15T09:08:01.755Z,25.10
2018-07-15T09:11:05.381Z,24.50
2018-07-15T09:14:08.993Z,23.40
2018-07-15T09:17:12.743Z,23.30
2018-07-15T09:20:16.352Z,23.40
2018-07-15T09:23:20.002Z,23.50
2018-07-15T09:26:23.638Z,23.70
2018-07-15T09:29:27.276Z,23.90
2018-07-15T09:32:30.896Z,24.20
2018-07-15T09:38:37.929Z,24.80
2018-07-15T09:41:41.570Z,24.70
2018-07-15T09:44:45.202Z,23.60
2018-07-15T09:50:52.186Z,23.10
2018-07-15T09:53:55.827Z,23.10
2018-07-15T09:56:59.451Z,23.00
2018-07-15T10:00:03.098Z,23.50
2018-07-15T10:03:06.700Z,23.40
2018-07-15T10:06:10.417Z,23.50
2018-07-15T10:09:14.031Z,23.40
2018-07-15T10:12:17.671Z,23.90
2018-07-15T10:15:21.314Z,24.20
2018-07-15T10:21:28.277Z,24.00
2018-07-15T10:24:31.922Z,23.70
2018-07-15T10:32:08.267Z,22.90
2018-07-15T10:35:11.878Z,22.80
2018-07-15T10:38:15.497Z,23.00
2018-07-15T10:41:19.120Z,23.00
2018-07-15T10:47:26.092Z,23.80
2018-07-15T10:50:29.718Z,24.10
2018-07-15T10:53:33.349Z,24.10
2018-07-15T10:56:36.991Z,23.90
2018-07-15T10:59:40.606Z,24.00
2018-07-15T11:02:44.330Z,23.70
2018-07-15T11:08:51.446Z,24.10
2018-07-15T11:18:02.151Z,23.50
2018-07-15T11:21:05.852Z,23.20
2018-07-15T11:28:24.924Z,22.80
2018-07-15T11:31:28.648Z,23.20
2018-07-15T11:34:33.054Z,22.90
2018-07-15T11:40:40.103Z,23.00
2018-07-15T11:43:43.751Z,23.30
2018-07-15T11:46:47.558Z,23.90
2018-07-15T11:49:51.264Z,24.40
2018-07-15T11:52:54.887Z,24.40
2018-07-15T11:55:58.506Z,24.60
2018-07-15T11:59:02.130Z,24.40
2018-07-15T12:02:05.811Z,23.90
2018-07-15T12:05:09.502Z,23.30
2018-07-15T12:08:13.200Z,23.30
2018-07-15T12:11:16.759Z,23.70
2018-07-15T12:14:20.613Z,23.90
2018-07-15T12:17:24.263Z,23.70
2018-07-15T12:20:27.935Z,23.70
2018-07-15T12:23:31.686Z,23.10
2018-07-15T12:26:35.405Z,23.20
2018-07-15T12:29:39.024Z,23.70
2018-07-15T12:32:42.703Z,23.90
2018-07-15T12:38:49.685Z,24.30
2018-07-15T12:41:53.322Z,24.20
2018-07-15T12:44:56.974Z,24.20
2018-07-15T12:48:00.582Z,23.80
2018-07-15T12:51:04.318Z,23.70
2018-07-15T12:54:07.922Z,23.60
2018-07-15T13:00:15.794Z,23.90
2018-07-15T13:03:19.448Z,23.90
2018-07-15T13:09:26.426Z,23.70
2018-07-15T13:12:30.453Z,23.40
2018-07-15T13:15:34.094Z,23.30
2018-07-15T13:18:37.726Z,23.30
2018-07-15T13:21:41.346Z,23.50
2018-07-15T13:24:45.063Z,23.70
2018-07-15T13:27:48.775Z,23.50
2018-07-15T13:30:52.472Z,23.30
2018-07-15T13:33:56.048Z,23.50
2018-07-15T13:36:59.690Z,23.70
2018-07-15T13:40:03.333Z,23.60
2018-07-15T13:43:06.983Z,23.40
2018-07-15T13:49:13.996Z,23.00
2018-07-15T13:52:17.682Z,22.90
2018-07-15T13:55:21.368Z,23.00
2018-07-15T13:58:24.965Z,23.10
2018-07-15T14:01:28.809Z,23.40
2018-07-15T14:04:32.423Z,23.70
2018-07-15T14:07:36.053Z,23.70
2018-07-15T14:10:39.728Z,23.80
2018-07-15T14:16:46.682Z,24.10
2018-07-15T14:19:50.330Z,23.70
2018-07-15T14:22:53.960Z,23.90
2018-07-15T14:25:57.648Z,23.60
2018-07-15T14:29:01.263Z,23.70
2018-07-15T14:32:04.914Z,23.90
2018-07-15T14:38:12.322Z,24.00
2018-07-15T14:41:15.908Z,24.00
2018-07-15T14:44:19.522Z,23.90
2018-07-15T14:53:30.140Z,24.00
2018-07-15T14:56:33.854Z,24.10
2018-07-15T14:59:37.533Z,24.10
2018-07-15T15:02:41.146Z,24.20
2018-07-15T15:05:44.840Z,24.30
2018-07-15T15:08:48.544Z,24.10
2018-07-15T15:11:52.225Z,24.00
2018-07-15T15:14:55.847Z,23.90
2018-07-15T15:24:06.567Z,24.00
2018-07-15T15:27:10.170Z,24.00
2018-07-15T15:30:13.994Z,24.10
2018-07-15T15:33:17.613Z,24.30
2018-07-15T15:36:21.249Z,24.30
2018-07-15T15:39:24.859Z,24.30
2018-07-15T15:42:28.675Z,24.30
2018-07-15T15:45:32.177Z,24.30
2018-07-15T15:48:35.839Z,24.30
2018-07-15T15:51:39.429Z,24.20
2018-07-15T15:54:43.082Z,24.10
2018-07-15T16:00:50.038Z,24.00
2018-07-15T16:03:53.670Z,24.00
2018-07-15T16:06:57.431Z,24.00
2018-07-15T16:10:01.015Z,24.00
2018-07-15T16:13:04.769Z,24.00
2018-07-15T16:16:08.994Z,24.10
2018-07-15T16:19:12.590Z,24.20
2018-07-15T16:22:16.217Z,24.30
2018-07-15T16:28:23.186Z,24.20
2018-07-15T16:31:26.797Z,24.20
2018-07-15T16:37:57.373Z,24.00
2018-07-15T16:41:00.991Z,24.00
2018-07-15T16:44:04.938Z,23.90
2018-07-15T16:47:08.548Z,24.00
2018-07-15T16:50:12.204Z,24.00
2018-07-15T16:53:15.822Z,24.10
2018-07-15T16:56:19.557Z,24.00
2018-07-15T16:59:23.065Z,24.10
2018-07-15T17:02:26.788Z,24.00
2018-07-15T17:05:30.388Z,24.00
2018-07-15T17:08:34.014Z,24.00
2018-07-15T17:11:37.631Z,23.90
2018-07-15T17:14:41.542Z,24.00
2018-07-15T17:17:45.980Z,24.00
2018-07-15T17:20:49.598Z,24.00
2018-07-15T17:23:53.227Z,23.90
2018-07-15T17:30:00.223Z,24.00
2018-07-15T17:33:03.947Z,24.00
2018-07-15T17:36:07.571Z,24.00
2018-07-15T17:39:11.214Z,24.00
2018-07-15T17:42:14.835Z,23.90
2018-07-15T17:48:21.941Z,23.90
2018-07-15T17:51:25.676Z,23.90
2018-07-15T17:54:29.283Z,23.80
2018-07-15T17:57:32.934Z,23.70
2018-07-15T18:00:36.654Z,23.50
2018-07-15T18:03:40.334Z,23.40
2018-07-15T18:06:43.961Z,23.40
2018-07-15T18:15:54.498Z,23.50
2018-07-15T18:18:58.117Z,23.40
2018-07-15T18:22:01.789Z,23.40
2018-07-15T18:25:05.366Z,23.30
2018-07-15T18:34:15.787Z,23.20
2018-07-15T18:37:19.448Z,23.20
2018-07-15T18:40:23.055Z,23.20
2018-07-15T18:43:26.736Z,23.10
2018-07-15T18:49:33.915Z,23.10
2018-07-15T18:52:37.575Z,23.10
2018-07-15T18:55:41.189Z,23.10
2018-07-15T18:58:44.827Z,23.00
2018-07-15T19:01:48.622Z,23.00
2018-07-15T19:04:52.242Z,22.90
2018-07-15T19:07:55.950Z,22.80
2018-07-15T19:10:59.598Z,22.80
2018-07-15T19:14:03.552Z,22.80
2018-07-15T19:17:08.326Z,22.70
2018-07-15T19:20:11.973Z,22.60
2018-07-15T19:23:15.740Z,22.50
2018-07-15T19:26:19.363Z,22.40
2018-07-15T19:29:22.994Z,22.10
2018-07-15T19:32:26.643Z,22.00
2018-07-15T19:35:30.353Z,21.90
2018-07-15T19:38:33.982Z,21.80
2018-07-15T19:41:37.607Z,21.70
2018-07-15T19:44:41.262Z,21.70
2018-07-15T19:47:44.902Z,21.50
2018-07-15T19:50:49.047Z,21.30
2018-07-15T19:53:52.750Z,21.20
2018-07-15T19:56:56.507Z,21.00
2018-07-15T20:00:00.191Z,20.80
2018-07-15T20:03:03.833Z,20.70
2018-07-15T20:06:07.488Z,20.60
2018-07-15T20:12:14.583Z,20.40
2018-07-15T20:21:25.054Z,20.10
2018-07-15T20:24:28.679Z,20.00
2018-07-15T20:27:32.502Z,19.90
2018-07-15T20:30:36.124Z,19.90
2018-07-15T20:33:39.761Z,19.80
2018-07-15T20:36:43.371Z,19.70
2018-07-15T20:39:47.838Z,19.60
2018-07-15T20:42:51.454Z,19.70
2018-07-15T20:45:55.082Z,19.60
2018-07-15T20:48:58.721Z,19.60
2018-07-15T20:55:05.742Z,19.50
2018-07-15T20:59:12.839Z,19.40
2018-07-15T21:02:16.523Z,19.40
2018-07-15T21:05:20.133Z,19.40
2018-07-15T21:08:23.829Z,19.30
2018-07-15T21:11:27.469Z,19.20
2018-07-15T21:14:31.094Z,19.20
2018-07-15T21:17:34.809Z,19.10
2018-07-15T21:20:38.550Z,19.20
2018-07-15T21:23:42.176Z,19.20
2018-07-15T21:26:45.795Z,19.20
2018-07-15T21:29:49.425Z,19.10
2018-07-15T21:32:53.041Z,19.10
2018-07-15T21:39:00.012Z,20.00
2018-07-15T21:42:03.704Z,20.20
2018-07-15T21:45:07.417Z,20.30
2018-07-15T21:48:11.274Z,20.30
2018-07-15T21:51:14.868Z,20.30
2018-07-15T21:57:21.877Z,20.10
2018-07-15T22:00:26.056Z,20.00
2018-07-15T22:03:29.658Z,19.90
2018-07-15T22:06:45.537Z,19.80
2018-07-15T22:10:00.794Z,19.70
2018-07-15T22:13:04.427Z,19.60
2018-07-15T22:16:08.060Z,19.50
2018-07-15T22:19:11.702Z,19.50
2018-07-15T22:22:15.830Z,19.40
2018-07-15T22:25:19.447Z,19.40
2018-07-15T22:28:23.083Z,19.30
2018-07-15T22:31:26.930Z,19.30
2018-07-15T22:34:30.991Z,19.30
2018-07-15T22:37:34.583Z,19.20
2018-07-15T22:46:44.983Z,19.00
2018-07-15T22:52:52.055Z,18.80
2018-07-15T22:55:55.727Z,18.80
2018-07-15T22:58:59.374Z,18.70
2018-07-15T23:02:02.997Z,18.60
2018-07-15T23:11:53.191Z,18.50
2018-07-15T23:14:56.811Z,18.50
2018-07-15T23:18:00.703Z,18.50
2018-07-15T23:21:04.635Z,18.40
2018-07-15T23:30:15.167Z,18.20
2018-07-15T23:33:18.775Z,18.20
2018-07-15T23:36:22.403Z,18.20
2018-07-15T23:39:26.023Z,18.20
2018-07-15T23:42:29.664Z,18.20
2018-07-15T23:45:34.118Z,18.20
2018-07-15T23:48:37.758Z,18.00
2018-07-15T23:51:41.363Z,18.00
2018-07-15T23:54:44.989Z,17.90
2018-07-15T23:57:48.831Z,17.90
